Time;durP1;ratioP1;P1;durP2;ratioP2;P2;SDS_P1;SDS_P2;PMS_P1;PMS_P2;Temp;Humidity;BMP_temperature;BMP_pressure;BME280_temperature;BME280_humidity;BME280_pressure;Samples;Min_cycle;Max_cycle;Signal;HPM_P1;HPM_P2
2021/09/29 00:00:13;;;;;;;5.50;4.93;;;;;;;17.33;72.85;101257.47;5021068;28;20037;-42
2021/09/29 00:02:38;;;;;;;4.65;4.30;;;;;;;17.32;72.86;101253.91;5022361;28;20148;-43
2021/09/29 00:05:04;;;;;;;4.50;4.10;;;;;;;17.30;72.65;101253.06;5020173;28;20026;-42
2021/09/29 00:07:30;;;;;;;4.85;4.53;;;;;;;17.30;72.81;101245.06;5023233;28;20022;-42
2021/09/29 00:09:55;;;;;;;4.70;4.30;;;;;;;17.30;72.71;101243.28;5021790;28;20485;-43
2021/09/29 00:12:21;;;;;;;4.65;4.25;;;;;;;17.28;72.89;101234.44;5021737;28;20038;-41
2021/09/29 00:14:47;;;;;;;4.82;4.43;;;;;;;17.28;72.92;101239.78;5023159;28;20025;-41
2021/09/29 00:17:12;;;;;;;4.80;4.10;;;;;;;17.28;72.70;101233.59;5019576;28;20030;-41
2021/09/29 00:19:38;;;;;;;4.95;4.47;;;;;;;17.28;72.82;101231.78;5021511;28;20033;-41
2021/09/29 00:22:03;;;;;;;4.50;4.15;;;;;;;17.27;73.02;101231.84;5021503;28;20014;-41
2021/09/29 00:24:28;;;;;;;4.95;4.50;;;;;;;17.26;73.02;101228.31;5018962;28;20053;-42
2021/09/29 00:26:53;;;;;;;4.82;4.43;;;;;;;17.27;72.91;101227.38;5025726;28;20489;-41
2021/09/29 00:29:19;;;;;;;4.78;4.38;;;;;;;17.25;72.74;101221.22;5019838;28;20033;-41
2021/09/29 00:31:44;;;;;;;4.25;3.95;;;;;;;17.26;72.82;101219.41;5021392;28;20024;-41
2021/09/29 00:34:11;;;;;;;4.57;4.28;;;;;;;17.24;72.81;101215.94;5019455;28;20014;-42
2021/09/29 00:36:42;;;;;;;4.57;4.18;;;;;;;17.23;72.89;101209.72;4986219;28;20045;-41
2021/09/29 00:39:08;;;;;;;4.43;4.03;;;;;;;17.23;72.95;101222.16;5005160;28;20028;-41
2021/09/29 00:41:33;;;;;;;4.32;4.03;;;;;;;17.22;72.87;101217.75;5021720;28;20036;-41
2021/09/29 00:44:00;;;;;;;4.88;4.47;;;;;;;17.20;72.85;101204.47;5024225;28;20029;-41
2021/09/29 00:46:25;;;;;;;4.47;4.07;;;;;;;17.19;72.66;101205.41;5018734;28;20022;-41
2021/09/29 00:48:51;;;;;;;4.43;4.05;;;;;;;17.19;72.86;101202.72;5004505;28;20033;-41
2021/09/29 00:51:16;;;;;;;4.25;3.95;;;;;;;17.20;72.75;101199.16;5019684;28;20076;-41
2021/09/29 00:53:42;;;;;;;4.30;3.95;;;;;;;17.18;72.76;101188.53;5005174;28;20681;-41
2021/09/29 00:56:07;;;;;;;4.93;4.50;;;;;;;17.17;72.66;101183.22;5021677;28;20103;-41
2021/09/29 00:58:32;;;;;;;4.97;4.47;;;;;;;17.16;72.77;101170.84;4991931;28;21406;-41
2021/09/29 01:00:58;;;;;;;5.30;4.80;;;;;;;17.15;72.77;101171.75;5006180;28;20022;-41
2021/09/29 01:03:24;;;;;;;5.18;4.78;;;;;;;17.15;72.86;101171.75;5009179;28;20036;-41
2021/09/29 01:05:50;;;;;;;6.20;4.70;;;;;;;17.13;72.67;101177.13;5006415;28;20044;-41
2021/09/29 01:08:19;;;;;;;4.85;4.45;;;;;;;17.13;72.85;101170.91;5021588;28;20111;-42
2021/09/29 01:10:53;;;;;;;5.45;4.63;;;;;;;17.11;72.80;101159.44;5006635;28;20387;-41
2021/09/29 01:13:42;;;;;;;5.38;4.97;;;;;;;17.11;72.84;101146.13;5005984;28;20160;-41
2021/09/29 01:16:11;;;;;;;5.35;4.85;;;;;;;17.09;72.71;101143.50;5027662;28;20380;-41
2021/09/29 01:18:41;;;;;;;5.65;5.15;;;;;;;17.08;72.71;101140.88;5009368;28;20025;-41
2021/09/29 01:21:10;;;;;;;6.00;5.50;;;;;;;17.09;72.93;101129.28;5023188;28;20022;-44
2021/09/29 01:23:49;;;;;;;5.63;5.13;;;;;;;17.08;72.96;101132.88;5023071;28;20107;-41
2021/09/29 01:26:17;;;;;;;6.25;5.68;;;;;;;17.07;72.97;101134.66;5006796;28;20025;-41
2021/09/29 01:28:46;;;;;;;5.53;5.03;;;;;;;17.05;72.60;101132.03;5005264;28;20021;-41
2021/09/29 01:31:12;;;;;;;7.93;5.68;;;;;;;17.05;72.69;101133.81;5007598;28;20096;-42
2021/09/29 01:33:38;;;;;;;6.30;5.80;;;;;;;17.03;72.74;101133.84;5009186;28;20434;-40
2021/09/29 01:36:04;;;;;;;5.78;5.28;;;;;;;17.02;72.56;101129.44;5025524;28;20110;-40
2021/09/29 01:38:30;;;;;;;5.80;5.30;;;;;;;17.03;72.74;101130.31;5024649;28;20069;-41
2021/09/29 01:40:55;;;;;;;5.80;5.30;;;;;;;17.04;72.78;101132.06;5022263;28;20065;-41
2021/09/29 01:43:21;;;;;;;7.00;5.60;;;;;;;17.01;72.62;101125.03;5023830;28;20184;-41
2021/09/29 01:45:47;;;;;;;6.25;5.72;;;;;;;17.01;72.62;101119.69;5021694;28;20369;-41
2021/09/29 01:48:14;;;;;;;5.28;4.78;;;;;;;17.00;72.54;101120.63;5024986;28;20034;-42
2021/09/29 01:50:41;;;;;;;5.60;5.10;;;;;;;17.00;72.55;101111.75;5005921;28;20029;-40
2021/09/29 01:53:08;;;;;;;5.80;5.22;;;;;;;16.99;72.57;101105.56;5005788;28;20017;-41
2021/09/29 01:55:35;;;;;;;5.45;5.00;;;;;;;16.96;72.61;101105.63;5008785;28;20379;-41
2021/09/29 01:58:01;;;;;;;6.75;5.20;;;;;;;16.95;72.48;101101.25;5004780;28;20033;-41
2021/09/29 02:00:26;;;;;;;5.60;5.10;;;;;;;16.97;72.64;101102.06;4990057;28;20030;-41
2021/09/29 02:02:59;;;;;;;6.00;5.50;;;;;;;16.96;72.67;101096.75;5022314;28;20037;-41
2021/09/29 02:05:29;;;;;;;5.20;4.80;;;;;;;16.95;72.43;101098.56;5023329;28;20030;-41
2021/09/29 02:07:54;;;;;;;5.15;4.75;;;;;;;16.93;72.67;101090.63;4988616;28;20072;-41
2021/09/29 02:10:19;;;;;;;5.50;5.00;;;;;;;16.94;72.48;101091.47;5008977;28;20232;-41
2021/09/29 02:12:45;;;;;;;5.30;4.90;;;;;;;16.93;72.46;101097.72;5021914;28;20507;-41
2021/09/29 02:15:10;;;;;;;6.28;5.68;;;;;;;16.92;72.45;101082.66;5022840;28;20037;-40
2021/09/29 02:17:36;;;;;;;5.43;5.03;;;;;;;16.92;72.54;101082.66;5025853;28;20052;-41
2021/09/29 02:20:01;;;;;;;5.00;4.60;;;;;;;16.91;72.35;101079.13;5006551;28;20088;-41
2021/09/29 02:22:26;;;;;;;5.03;4.63;;;;;;;16.91;72.76;101072.94;5023179;28;20022;-41
2021/09/29 02:24:52;;;;;;;4.95;4.55;;;;;;;16.91;72.55;101075.59;5003199;28;20056;-41
2021/09/29 02:27:17;;;;;;;5.38;4.93;;;;;;;16.90;72.62;101079.16;5022339;28;20030;-41
2021/09/29 02:29:42;;;;;;;5.47;4.97;;;;;;;16.91;72.52;101080.94;5024207;28;20026;-42
2021/09/29 02:32:08;;;;;;;5.05;4.63;;;;;;;16.90;72.58;101073.84;5023150;28;20064;-41
2021/09/29 02:34:33;;;;;;;5.50;5.00;;;;;;;16.89;72.46;101078.31;5006779;28;20120;-42
2021/09/29 02:36:58;;;;;;;5.22;4.82;;;;;;;16.90;72.62;101076.50;5018666;28;20026;-41
2021/09/29 02:39:24;;;;;;;5.45;4.95;;;;;;;16.89;72.48;101072.09;5021988;28;20033;-41
2021/09/29 02:41:49;;;;;;;5.35;4.88;;;;;;;16.89;72.38;101077.44;5006170;28;20024;-41
2021/09/29 02:44:15;;;;;;;5.60;5.10;;;;;;;16.87;72.29;101068.63;5005250;28;20501;-41
2021/09/29 02:46:41;;;;;;;5.00;4.50;;;;;;;16.87;72.30;101060.63;5010550;28;20033;-40
2021/09/29 02:49:06;;;;;;;5.55;4.78;;;;;;;16.87;72.38;101065.97;5022753;28;20091;-41
2021/09/29 02:51:32;;;;;;;5.38;4.88;;;;;;;16.86;72.50;101062.41;5023023;28;20442;-41
2021/09/29 02:53:57;;;;;;;5.15;4.75;;;;;;;16.86;72.55;101061.53;5023879;28;20068;-41
2021/09/29 02:56:22;;;;;;;5.20;4.80;;;;;;;16.85;72.38;101059.78;5021259;28;20022;-41
2021/09/29 02:58:48;;;;;;;4.93;4.53;;;;;;;16.84;72.33;101063.38;5022064;28;20510;-42
2021/09/29 03:01:13;;;;;;;5.40;4.90;;;;;;;16.83;72.08;101054.50;5025350;28;20030;-42
2021/09/29 03:03:38;;;;;;;4.97;4.57;;;;;;;16.81;72.36;101059.03;5023873;28;20368;-42
2021/09/29 03:06:04;;;;;;;4.65;4.25;;;;;;;16.80;72.49;101055.47;5021921;28;20037;-43
2021/09/29 03:08:29;;;;;;;4.97;4.57;;;;;;;16.80;72.51;101058.13;5057524;23;20041;-41
2021/09/29 03:10:54;;;;;;;6.53;4.82;;;;;;;16.78;72.58;101059.97;5048507;28;20021;-41
2021/09/29 03:13:20;;;;;;;5.07;4.60;;;;;;;16.78;72.26;101057.28;5047838;28;20402;-41
2021/09/29 03:15:46;;;;;;;5.28;4.88;;;;;;;16.78;72.37;101049.31;5046340;28;20039;-41
2021/09/29 03:18:11;;;;;;;4.93;4.53;;;;;;;16.78;72.61;101051.97;5044433;28;20063;-41
2021/09/29 03:20:36;;;;;;;4.88;4.47;;;;;;;16.76;72.46;101045.84;5044199;28;20024;-41
2021/09/29 03:23:03;;;;;;;5.50;5.00;;;;;;;16.75;72.31;101040.53;5043897;28;20029;-41
2021/09/29 03:25:28;;;;;;;4.38;4.07;;;;;;;16.77;72.28;101049.34;5042084;28;20021;-41
2021/09/29 03:27:53;;;;;;;4.47;4.07;;;;;;;16.77;72.12;101052.00;5039662;28;20021;-41
2021/09/29 03:30:19;;;;;;;5.00;4.57;;;;;;;16.77;72.10;101057.34;5038101;28;20428;-40
2021/09/29 03:32:45;;;;;;;5.22;4.82;;;;;;;16.75;72.25;101057.41;5041264;28;20168;-40
2021/09/29 03:35:11;;;;;;;5.78;5.00;;;;;;;16.75;71.92;101053.88;5038578;28;20025;-41
2021/09/29 03:37:37;;;;;;;4.65;4.25;;;;;;;16.75;72.20;101049.41;5044543;28;20025;-41
2021/09/29 03:40:03;;;;;;;4.57;4.28;;;;;;;16.74;72.24;101046.81;5039556;28;20029;-41
2021/09/29 03:42:29;;;;;;;4.40;4.10;;;;;;;16.73;72.12;101037.94;5043050;28;20021;-41
2021/09/29 03:44:54;;;;;;;4.85;4.45;;;;;;;16.74;72.07;101026.34;5041342;28;20496;-41
2021/09/29 03:47:19;;;;;;;4.47;4.15;;;;;;;16.73;71.94;101032.59;5046355;28;20458;-41
2021/09/29 03:49:45;;;;;;;4.53;4.20;;;;;;;16.72;71.83;101033.53;5041856;28;20456;-41
2021/09/29 03:52:10;;;;;;;5.00;4.50;;;;;;;16.72;71.76;101027.31;5042585;28;20446;-41
2021/09/29 03:54:35;;;;;;;4.30;3.90;;;;;;;16.72;71.64;101028.19;5042928;28;20388;-41
2021/09/29 03:57:01;;;;;;;4.40;4.10;;;;;;;16.71;71.67;101014.94;5039610;28;20024;-41
2021/09/29 03:59:26;;;;;;;4.40;4.03;;;;;;;16.71;71.63;101010.47;5041532;28;20026;-42
2021/09/29 04:01:52;;;;;;;5.55;5.05;;;;;;;16.71;71.78;101001.59;5039455;28;20071;-41
2021/09/29 04:04:18;;;;;;;5.00;4.60;;;;;;;16.70;71.69;100998.06;5037860;28;20382;-41
2021/09/29 04:06:43;;;;;;;4.80;4.40;;;;;;;16.68;71.73;100995.44;5043440;28;20080;-41
2021/09/29 04:09:09;;;;;;;4.22;3.92;;;;;;;16.68;71.78;100989.25;5042436;28;20033;-41
2021/09/29 04:11:34;;;;;;;4.70;4.40;;;;;;;16.67;71.62;100999.03;5043879;28;20008;-41
2021/09/29 04:13:59;;;;;;;5.15;4.65;;;;;;;16.67;71.81;100998.16;5022208;28;20049;-41
2021/09/29 04:16:25;;;;;;;4.78;4.38;;;;;;;16.68;71.49;101000.78;5046401;28;20026;-41
2021/09/29 04:18:50;;;;;;;5.22;4.72;;;;;;;16.66;71.69;100996.41;5037886;28;20033;-41
2021/09/29 04:21:15;;;;;;;4.85;4.47;;;;;;;16.66;71.63;100993.75;5038612;28;20398;-41
2021/09/29 04:23:41;;;;;;;4.72;4.32;;;;;;;16.65;71.61;100986.69;5041932;28;20115;-41
2021/09/29 04:26:07;;;;;;;4.72;4.32;;;;;;;16.65;71.65;100973.38;5037218;28;20021;-41
2021/09/29 04:28:32;;;;;;;5.45;5.05;;;;;;;16.63;71.59;100986.72;5041736;28;20039;-41
2021/09/29 04:30:57;;;;;;;4.30;3.83;;;;;;;16.62;71.57;100984.09;5042438;28;20502;-41
2021/09/29 04:33:23;;;;;;;4.65;4.28;;;;;;;16.62;71.76;100977.00;5047469;28;20056;-42
2021/09/29 04:35:48;;;;;;;4.93;4.53;;;;;;;16.63;71.77;100980.53;5044168;28;20021;-41
2021/09/29 04:38:13;;;;;;;4.88;4.47;;;;;;;16.62;71.60;100973.47;5044334;28;20029;-42
2021/09/29 04:40:39;;;;;;;4.70;4.25;;;;;;;16.61;71.75;100977.03;5046779;28;20069;-42
2021/09/29 04:43:04;;;;;;;4.05;3.75;;;;;;;16.60;71.55;100972.66;5044298;28;20490;-41
2021/09/29 04:45:30;;;;;;;4.30;4.00;;;;;;;16.58;71.70;100978.00;5046940;28;20060;-41
2021/09/29 04:47:55;;;;;;;4.65;4.25;;;;;;;16.58;71.72;100972.69;5046444;28;20394;-42
2021/09/29 04:50:20;;;;;;;5.05;4.65;;;;;;;16.57;71.66;100972.72;5048190;28;20422;-41
2021/09/29 04:52:46;;;;;;;4.82;4.45;;;;;;;16.59;71.71;100973.53;5048889;28;20025;-41
2021/09/29 04:55:11;;;;;;;5.78;4.75;;;;;;;16.55;71.63;100975.44;5043652;28;20039;-41
2021/09/29 04:57:37;;;;;;;4.70;4.30;;;;;;;16.56;71.71;100971.84;5049640;28;20024;-41
2021/09/29 05:00:03;;;;;;;4.85;4.45;;;;;;;16.55;71.68;100968.31;5044788;28;20044;-41
2021/09/29 05:02:29;;;;;;;4.65;4.35;;;;;;;16.55;71.72;100970.97;5046617;28;20032;-41
2021/09/29 05:04:54;;;;;;;5.07;4.68;;;;;;;16.53;71.71;100970.16;5047387;28;20033;-41
2021/09/29 05:07:20;;;;;;;4.55;4.22;;;;;;;16.53;71.75;100970.16;5049291;28;20036;-41
2021/09/29 05:09:46;;;;;;;5.10;4.70;;;;;;;16.53;71.65;100966.59;5050641;28;20123;-41
2021/09/29 05:12:29;;;;;;;4.60;4.20;;;;;;;16.53;71.83;100969.28;5044768;28;20100;-41
2021/09/29 05:14:55;;;;;;;5.63;4.80;;;;;;;16.51;71.75;100969.31;5043183;28;20108;-41
2021/09/29 05:17:20;;;;;;;5.53;5.10;;;;;;;16.50;71.60;100959.59;5047914;28;20129;-41
2021/09/29 05:19:46;;;;;;;4.75;4.35;;;;;;;16.51;71.65;100971.13;5051860;28;20035;-41
2021/09/29 05:22:11;;;;;;;5.32;4.90;;;;;;;16.50;71.73;100974.69;5024785;28;20650;-41
2021/09/29 05:24:37;;;;;;;4.90;4.50;;;;;;;16.48;71.83;100961.44;5041593;28;20027;-41
2021/09/29 05:27:02;;;;;;;4.93;4.53;;;;;;;16.48;71.63;100964.09;5046106;28;20395;-41
2021/09/29 05:29:28;;;;;;;4.70;4.40;;;;;;;16.48;71.83;100968.53;5042595;28;20074;-41
2021/09/29 05:31:53;;;;;;;5.22;4.82;;;;;;;16.48;71.70;100965.88;5043683;28;20395;-41
2021/09/29 05:34:18;;;;;;;5.63;5.13;;;;;;;16.45;71.83;100965.97;5044092;28;20025;-41
2021/09/29 05:36:45;;;;;;;5.18;4.78;;;;;;;16.46;71.78;100971.25;5046559;28;20057;-41
2021/09/29 05:39:12;;;;;;;5.43;4.93;;;;;;;16.46;71.82;100979.22;5044885;28;20041;-41
2021/09/29 05:41:37;;;;;;;5.78;5.28;;;;;;;16.46;71.88;100973.91;5041744;28;20382;-41
2021/09/29 05:44:02;;;;;;;5.57;5.07;;;;;;;16.45;71.77;100965.97;5039432;28;20029;-41
2021/09/29 05:46:29;;;;;;;4.93;4.53;;;;;;;16.44;71.83;100966.88;5046425;28;20037;-41
2021/09/29 05:48:55;;;;;;;5.28;4.78;;;;;;;16.43;71.62;100966.00;5040527;28;20029;-41
2021/09/29 05:51:20;;;;;;;5.38;4.88;;;;;;;16.45;71.68;100971.28;5041748;28;20044;-41
2021/09/29 05:53:45;;;;;;;5.60;5.07;;;;;;;16.43;71.89;100976.66;5037831;28;20037;-41
2021/09/29 05:56:13;;;;;;;5.65;5.15;;;;;;;16.41;71.85;100960.72;5039223;28;20069;-41
2021/09/29 05:58:40;;;;;;;5.53;4.80;;;;;;;16.41;71.69;100965.19;5042407;28;20092;-41
2021/09/29 06:01:05;;;;;;;5.25;4.75;;;;;;;16.40;71.75;100959.00;5036049;28;20142;-41
2021/09/29 06:03:30;;;;;;;5.22;4.72;;;;;;;16.41;71.92;100959.88;5041518;28;20028;-41
2021/09/29 06:05:56;;;;;;;4.70;4.28;;;;;;;16.39;71.74;100951.94;5038298;28;20029;-41
2021/09/29 06:08:21;;;;;;;5.07;4.68;;;;;;;16.38;71.65;100962.63;5042332;28;20890;-41
2021/09/29 06:10:46;;;;;;;6.10;5.60;;;;;;;16.38;71.90;100950.16;5040699;28;20036;-41
2021/09/29 06:13:12;;;;;;;5.68;4.70;;;;;;;16.37;71.88;100947.56;5039941;28;20467;-41
2021/09/29 06:15:37;;;;;;;4.88;4.50;;;;;;;16.37;71.92;100948.41;5038917;28;20582;-41
2021/09/29 06:18:03;;;;;;;5.07;4.68;;;;;;;16.36;71.74;100940.47;5044188;28;20032;-41
2021/09/29 06:20:32;;;;;;;5.28;4.78;;;;;;;16.36;71.94;100937.81;5043486;28;20052;-41
2021/09/29 06:22:57;;;;;;;4.72;4.32;;;;;;;16.36;71.94;100933.38;5044159;28;20283;-40
2021/09/29 06:25:23;;;;;;;5.47;4.97;;;;;;;16.35;71.96;100938.75;5044977;28;20025;-41
2021/09/29 06:27:49;;;;;;;5.85;5.32;;;;;;;16.34;71.82;100940.53;5044181;28;20097;-41
2021/09/29 06:30:14;;;;;;;5.40;4.93;;;;;;;16.34;71.91;100942.34;5046673;28;20026;-40
2021/09/29 06:32:40;;;;;;;5.13;4.72;;;;;;;16.33;71.83;100935.25;5042400;28;20024;-42
2021/09/29 06:35:07;;;;;;;5.47;4.93;;;;;;;16.32;72.05;100929.06;5042937;28;20032;-41
2021/09/29 06:37:38;;;;;;;5.43;4.93;;;;;;;16.32;72.03;100947.69;5043433;28;20029;-41
2021/09/29 06:40:05;;;;;;;5.43;4.43;;;;;;;16.31;71.94;100943.28;5044316;28;20029;-40
2021/09/29 06:42:31;;;;;;;5.68;4.93;;;;;;;16.31;72.03;100939.75;5037957;28;20079;-41
2021/09/29 06:44:56;;;;;;;5.40;5.00;;;;;;;16.31;72.00;100937.09;5041376;28;20033;-42
2021/09/29 06:47:21;;;;;;;5.63;5.13;;;;;;;16.31;72.07;100942.41;5041129;28;20034;-44
2021/09/29 06:49:46;;;;;;;5.60;5.10;;;;;;;16.30;72.00;100933.53;5040227;28;20386;-40
2021/09/29 06:52:12;;;;;;;5.30;4.40;;;;;;;16.28;71.95;100912.28;5041331;28;20025;-44
2021/09/29 06:54:37;;;;;;;5.40;4.90;;;;;;;16.29;72.09;100930.03;5040932;28;20025;-41
2021/09/29 06:57:02;;;;;;;5.40;4.90;;;;;;;16.28;71.97;100917.63;5044995;28;20025;-40
2021/09/29 06:59:28;;;;;;;4.97;4.57;;;;;;;16.27;72.11;100910.56;5042111;28;20021;-41
2021/09/29 07:01:53;;;;;;;5.18;4.78;;;;;;;16.26;72.11;100908.81;5044631;28;20530;-41
2021/09/29 07:04:18;;;;;;;5.85;5.35;;;;;;;16.25;72.10;100923.06;5041765;28;20052;-40
2021/09/29 07:06:44;;;;;;;5.38;4.80;;;;;;;16.26;72.01;100924.78;5039607;28;20077;-41
2021/09/29 07:09:09;;;;;;;6.00;5.43;;;;;;;16.26;72.00;100919.47;5034490;28;20017;-41
2021/09/29 07:11:34;;;;;;;5.95;5.35;;;;;;;16.25;72.15;100919.50;5047529;28;20036;-40
2021/09/29 07:14:02;;;;;;;5.40;4.88;;;;;;;16.25;72.21;100936.38;5043543;28;20017;-41
2021/09/29 07:16:28;;;;;;;5.80;5.30;;;;;;;16.25;72.21;100943.47;5038255;28;20028;-41
2021/09/29 07:18:57;;;;;;;4.93;4.53;;;;;;;16.24;72.24;100947.06;5038226;28;20487;-42
2021/09/29 07:21:23;;;;;;;5.85;5.35;;;;;;;16.23;72.14;100927.53;5036071;28;20479;-41
2021/09/29 07:23:49;;;;;;;5.47;4.97;;;;;;;16.23;72.00;100926.66;5042001;28;20057;-41
2021/09/29 07:26:14;;;;;;;5.45;4.95;;;;;;;16.22;72.33;100936.44;5037896;28;20036;-41
2021/09/29 07:28:40;;;;;;;6.30;5.38;;;;;;;16.21;72.20;100926.69;5046014;28;20025;-41
2021/09/29 07:31:05;;;;;;;5.88;5.28;;;;;;;16.22;72.13;100933.78;5034306;28;20017;-41
2021/09/29 07:33:33;;;;;;;5.22;4.72;;;;;;;16.20;72.09;100932.94;5042093;28;20036;-41
2021/09/29 07:35:58;;;;;;;5.93;5.43;;;;;;;16.20;72.33;100930.28;5041567;28;20079;-40
2021/09/29 07:38:26;;;;;;;6.78;5.65;;;;;;;16.20;72.30;100924.97;5040296;28;20112;-41
2021/09/29 07:40:53;;;;;;;5.60;5.10;;;;;;;16.20;72.08;100924.09;5040163;28;20018;-41
2021/09/29 07:43:18;;;;;;;6.55;5.90;;;;;;;16.19;72.19;100939.19;5041754;28;20033;-41
2021/09/29 07:45:44;;;;;;;5.80;5.10;;;;;;;16.19;72.25;100941.84;5042641;28;20035;-40
2021/09/29 07:48:09;;;;;;;6.35;5.75;;;;;;;16.19;72.08;100947.16;5039934;28;20057;-40
2021/09/29 07:50:34;;;;;;;6.53;5.93;;;;;;;16.19;72.17;100944.50;5038085;28;20044;-41
2021/09/29 07:52:59;;;;;;;6.18;5.57;;;;;;;16.19;72.25;100923.22;5042871;28;20483;-40
2021/09/29 07:55:25;;;;;;;5.30;4.80;;;;;;;16.18;72.33;100920.59;5044003;28;20014;-40
2021/09/29 07:57:50;;;;;;;6.38;5.78;;;;;;;16.14;72.29;100903.88;5036048;28;20515;-41
2021/09/29 08:00:16;;;;;;;6.55;5.90;;;;;;;16.17;72.33;100917.06;5038859;28;20617;-41
2021/09/29 08:02:43;;;;;;;5.63;5.13;;;;;;;16.17;72.23;100930.38;5041469;28;20036;-41
2021/09/29 08:05:09;;;;;;;6.07;5.50;;;;;;;16.16;72.24;100933.94;5042834;28;20024;-40
2021/09/29 08:07:34;;;;;;;6.00;5.50;;;;;;;16.16;72.21;100939.28;5047515;28;20024;-40
2021/09/29 08:09:59;;;;;;;6.20;5.60;;;;;;;16.15;72.29;100927.75;5042667;28;20074;-41
2021/09/29 08:12:25;;;;;;;7.40;6.60;;;;;;;16.16;72.25;100936.59;5046851;28;20514;-41
2021/09/29 08:14:51;;;;;;;6.10;5.38;;;;;;;16.15;72.26;100940.19;5044418;28;20032;-41
2021/09/29 08:17:17;;;;;;;5.88;5.38;;;;;;;16.14;72.37;100951.75;5048802;28;20021;-40
2021/09/29 08:19:42;;;;;;;6.78;6.13;;;;;;;16.14;72.31;100951.75;5042722;28;20040;-41
2021/09/29 08:22:09;;;;;;;8.38;6.28;;;;;;;16.13;72.40;100948.22;5048159;28;20379;-41
2021/09/29 08:24:41;;;;;;;6.72;6.03;;;;;;;16.13;72.33;100939.34;5043078;28;20029;-41
2021/09/29 08:27:15;;;;;;;7.00;6.30;;;;;;;16.13;72.31;100912.75;5040917;28;20024;-41
2021/09/29 08:29:50;;;;;;;6.07;5.47;;;;;;;16.13;72.40;100918.06;5045333;28;20035;-41
2021/09/29 08:32:39;;;;;;;7.88;6.18;;;;;;;16.13;72.39;100918.94;5045385;28;20072;-41
2021/09/29 08:35:26;;;;;;;7.43;6.72;;;;;;;16.12;72.35;100911.91;5043287;28;20051;-41
2021/09/29 08:38:00;;;;;;;7.78;6.57;;;;;;;16.13;72.43;100934.03;5042103;28;20452;-41
2021/09/29 08:43:26;;;;;;;7.35;6.13;;;;;;;16.12;72.35;100937.63;5041093;28;20056;-41
2021/09/29 08:46:02;;;;;;;7.45;5.82;;;;;;;16.10;72.53;100923.47;5042557;28;20028;-41
2021/09/29 09:16:09;;;;;;;8.82;6.85;;;;;;;16.08;72.56;100927.97;5041735;28;20213;-41
2021/09/29 09:18:46;;;;;;;7.28;6.57;;;;;;;16.08;72.43;100935.97;5045466;28;21335;-42
2021/09/29 09:21:16;;;;;;;8.52;7.43;;;;;;;16.08;72.46;100930.63;5043400;28;20025;-41
2021/09/29 09:23:42;;;;;;;9.05;7.25;;;;;;;16.07;72.41;100943.06;5044386;28;20455;-41
2021/09/29 09:26:17;;;;;;;8.25;6.95;;;;;;;16.08;72.51;100941.28;5043567;28;20047;-41
2021/09/29 09:28:43;;;;;;;7.78;6.97;;;;;;;16.06;72.41;100937.78;5040806;28;20107;-42
2021/09/29 09:31:20;;;;;;;8.52;7.55;;;;;;;16.07;72.57;100935.06;5043324;28;20013;-41
2021/09/29 09:33:53;;;;;;;9.18;7.68;;;;;;;16.07;72.52;100942.19;5043718;28;20024;-41
2021/09/29 09:36:41;;;;;;;7.93;6.97;;;;;;;16.07;72.47;100947.53;5043471;28;20029;-41
2021/09/29 09:39:10;;;;;;;7.78;6.88;;;;;;;16.07;72.55;100936.88;5039133;28;20017;-41
2021/09/29 09:41:45;;;;;;;8.63;7.72;;;;;;;16.06;72.65;100935.13;5040626;28;20028;-41
2021/09/29 09:44:10;;;;;;;9.55;8.07;;;;;;;16.06;72.53;100929.78;5041220;28;20053;-41
2021/09/29 09:46:35;;;;;;;8.40;7.57;;;;;;;16.06;72.64;100932.44;5042429;28;20094;-41
2021/09/29 09:49:09;;;;;;;9.82;8.00;;;;;;;16.06;72.72;100927.13;5042432;28;20021;-41
2021/09/29 09:51:51;;;;;;;9.60;7.95;;;;;;;16.05;72.71;100920.06;5042595;28;20534;-41
2021/09/29 09:54:16;;;;;;;8.55;7.70;;;;;;;16.06;72.64;100932.44;5045346;28;20057;-41
2021/09/29 09:56:45;;;;;;;8.73;7.20;;;;;;;16.05;72.78;100928.06;5044307;28;20727;-41
2021/09/29 09:59:11;;;;;;;9.07;7.43;;;;;;;16.05;72.62;100936.03;5040170;28;20578;-41
2021/09/29 10:01:36;;;;;;;8.65;7.75;;;;;;;16.04;72.45;100929.84;5043344;28;20055;-41
2021/09/29 10:04:11;;;;;;;8.80;7.90;;;;;;;16.06;72.72;100940.44;5042403;28;20478;-41
2021/09/29 10:06:37;;;;;;;8.55;7.63;;;;;;;16.05;72.66;100925.41;5042661;28;20032;-41
2021/09/29 10:09:10;;;;;;;8.00;7.05;;;;;;;16.03;72.86;100926.31;5039956;28;20032;-41
2021/09/29 10:11:48;;;;;;;8.20;7.40;;;;;;;16.03;72.68;100923.66;5045376;28;20041;-41
2021/09/29 10:14:45;;;;;;;10.10;7.83;;;;;;;16.03;72.80;100928.97;5043252;28;20052;-41
2021/09/29 10:28:18;;;;;;;9.02;7.20;;;;;;;16.01;72.74;100906.84;5035912;28;20036;-41
2021/09/29 10:33:29;;;;;;;7.75;6.95;;;;;;;16.02;72.92;100902.41;5046579;28;20116;-41
2021/09/29 10:36:05;;;;;;;8.45;6.68;;;;;;;16.02;72.78;100905.06;5041543;28;20018;-41
2021/09/29 10:41:06;;;;;;;8.88;7.07;;;;;;;16.02;72.78;100897.09;5044311;28;20033;-41
2021/09/29 10:44:20;;;;;;;7.57;6.63;;;;;;;16.02;72.67;100897.97;5045691;28;20143;-41
2021/09/29 10:46:52;;;;;;;7.65;6.55;;;;;;;16.02;72.76;100892.66;5038851;28;20033;-41
2021/09/29 10:49:34;;;;;;;7.80;7.03;;;;;;;16.03;72.93;100894.41;5040658;28;20498;-41
2021/09/29 10:52:19;;;;;;;7.78;6.75;;;;;;;16.02;72.86;100882.03;5041407;28;20018;-41
2021/09/29 11:03:59;;;;;;;7.18;6.47;;;;;;;16.03;72.95;100886.41;5037787;28;20612;-41
2021/09/29 11:09:50;;;;;;;8.07;6.75;;;;;;;16.03;72.75;100880.22;5018172;28;20037;-41
2021/09/29 11:31:50;;;;;;;8.20;7.40;;;;;;;16.05;72.60;100862.44;5036862;28;20037;-41
2021/09/29 11:34:33;;;;;;;7.25;6.55;;;;;;;16.05;72.53;100856.22;5041957;28;20071;-41
2021/09/29 12:10:06;;;;;;;6.35;5.72;;;;;;;16.06;71.75;100847.31;5038311;28;20123;-42
2021/09/29 12:12:36;;;;;;;7.05;6.35;;;;;;;16.07;71.78;100841.09;5042307;28;20032;-42
2021/09/29 12:15:04;;;;;;;6.32;5.72;;;;;;;16.06;71.73;100837.56;5038242;28;20029;-43
2021/09/29 12:17:35;;;;;;;5.47;5.00;;;;;;;16.07;71.57;100833.13;5039256;28;20104;-43
2021/09/29 12:20:16;;;;;;;6.35;5.80;;;;;;;16.06;71.49;100837.56;5039076;28;20025;-42
2021/09/29 12:22:47;;;;;;;6.35;5.70;;;;;;;16.07;71.57;100836.63;5037225;28;20032;-41
2021/09/29 12:25:17;;;;;;;;;;;;;;;16.09;71.51;100831.28;5037775;28;20115;-41
2021/09/29 12:30:30;;;;;;;5.75;5.25;;;;;;;16.07;71.54;100820.69;5036525;28;20052;-41
2021/09/29 12:33:11;;;;;;;6.07;5.32;;;;;;;16.08;71.36;100817.13;5037923;28;20212;-41
2021/09/29 12:35:45;;;;;;;6.03;5.50;;;;;;;16.08;71.44;100819.78;5037956;28;20032;-41
2021/09/29 12:38:12;;;;;;;5.40;4.80;;;;;;;16.09;71.40;100815.31;5034054;28;20528;-41
2021/09/29 12:40:41;;;;;;;5.43;4.93;;;;;;;16.08;71.48;100808.25;5032829;28;20030;-42
2021/09/29 12:43:15;;;;;;;5.55;5.05;;;;;;;16.08;71.50;100808.25;5035015;28;20021;-41
2021/09/29 12:45:43;;;;;;;5.40;4.85;;;;;;;16.09;71.43;100804.66;5033980;28;20548;-41
2021/09/29 12:48:10;;;;;;;5.40;4.57;;;;;;;16.09;71.32;100802.00;5035930;28;20470;-41
2021/09/29 12:55:53;;;;;;;4.68;4.30;;;;;;;16.10;71.02;100795.75;5044347;28;20056;-41
2021/09/29 12:58:18;;;;;;;4.43;4.03;;;;;;;16.10;71.04;100796.66;5046870;28;20502;-42
2021/09/29 13:00:43;;;;;;;4.50;4.10;;;;;;;16.11;70.90;100792.22;5041106;28;20040;-40
2021/09/29 13:03:09;;;;;;;5.32;4.85;;;;;;;16.10;70.65;100793.09;5036784;28;20025;-40
2021/09/29 13:05:35;;;;;;;4.57;4.18;;;;;;;16.12;70.88;100802.81;5035927;28;20503;-43
2021/09/29 13:08:00;;;;;;;5.38;4.88;;;;;;;16.12;70.87;100793.94;5041372;28;20091;-42
2021/09/29 13:10:26;;;;;;;4.57;4.18;;;;;;;16.12;70.80;100793.94;5045908;28;20506;-42
2021/09/29 13:12:52;;;;;;;4.50;4.15;;;;;;;16.13;70.86;100790.34;5045779;28;20053;-42
2021/09/29 13:15:20;;;;;;;4.15;3.85;;;;;;;16.12;70.93;100778.88;5046451;28;20118;-43
2021/09/29 13:17:49;;;;;;;4.65;4.00;;;;;;;16.13;70.82;100787.69;5042919;28;20052;-42
2021/09/29 13:20:20;;;;;;;4.25;3.85;;;;;;;16.13;70.72;100787.69;5047550;28;20106;-42
2021/09/29 13:22:50;;;;;;;4.03;3.63;;;;;;;16.14;70.94;100792.13;5046649;28;20021;-43
2021/09/29 13:25:33;;;;;;;6.65;3.92;;;;;;;16.14;70.64;100797.44;5041497;28;20035;-43